Map

Track Data

SID SEASON NUMBER BASIN SUBBASIN NAME ISO_TIME NATURE LAT LON WMO_WIND WMO_PRES WMO_AGENCY TRACK_TYPE DIST2LAND LANDFALL IFLAG USA_AGENCY USA_ATCF_ID USA_LAT USA_LON USA_RECORD USA_STATUS USA_WIND USA_PRES USA_SSHS USA_R34_NE USA_R34_SE USA_R34_SW USA_R34_NW USA_R50_NE USA_R50_SE USA_R50_SW USA_R50_NW USA_R64_NE USA_R64_SE USA_R64_SW USA_R64_NW USA_POCI USA_ROCI USA_RMW USA_EYE TOKYO_LAT TOKYO_LON TOKYO_GRADE TOKYO_WIND TOKYO_PRES TOKYO_R50_DIR TOKYO_R50_LONG TOKYO_R50_SHORT TOKYO_R30_DIR TOKYO_R30_LONG TOKYO_R30_SHORT TOKYO_LAND CMA_LAT CMA_LON CMA_CAT CMA_WIND CMA_PRES HKO_LAT HKO_LON HKO_CAT HKO_WIND HKO_PRES NEWDELHI_LAT NEWDELHI_LON NEWDELHI_GRADE NEWDELHI_WIND NEWDELHI_PRES NEWDELHI_CI NEWDELHI_DP NEWDELHI_POCI REUNION_LAT REUNION_LON REUNION_TYPE REUNION_WIND REUNION_PRES REUNION_TNUM REUNION_CI REUNION_RMW REUNION_R34_NE REUNION_R34_SE REUNION_R34_SW REUNION_R34_NW REUNION_R50_NE REUNION_R50_SE REUNION_R50_SW REUNION_R50_NW REUNION_R64_NE REUNION_R64_SE REUNION_R64_SW REUNION_R64_NW BOM_LAT BOM_LON BOM_TYPE BOM_WIND BOM_PRES BOM_TNUM BOM_CI BOM_RMW BOM_R34_NE BOM_R34_SE BOM_R34_SW BOM_R34_NW BOM_R50_NE BOM_R50_SE BOM_R50_SW BOM_R50_NW BOM_R64_NE BOM_R64_SE BOM_R64_SW BOM_R64_NW BOM_ROCI BOM_POCI BOM_EYE BOM_POS_METHOD BOM_PRES_METHOD NADI_LAT NADI_LON NADI_CAT NADI_WIND NADI_PRES WELLINGTON_LAT WELLINGTON_LON WELLINGTON_WIND WELLINGTON_PRES DS824_LAT DS824_LON DS824_STAGE DS824_WIND DS824_PRES TD9636_LAT TD9636_LON TD9636_STAGE TD9636_WIND TD9636_PRES TD9635_LAT TD9635_LON TD9635_WIND TD9635_PRES TD9635_ROCI NEUMANN_LAT NEUMANN_LON NEUMANN_CLASS NEUMANN_WIND NEUMANN_PRES MLC_LAT MLC_LON MLC_CLASS MLC_WIND MLC_PRES USA_GUST BOM_GUST BOM_GUST_PER REUNION_GUST REUNION_GUST_PER USA_SEAHGT USA_SEARAD_NE USA_SEARAD_SE USA_SEARAD_SW USA_SEARAD_NW STORM_SPEED STORM_DIR
1928211N22138 1928 39 WP MM NOT_NAMED 1928-07-28 22:00:00 NR 21.7000 137.500 main 1239 1196 __________O___ -1 21.7000 137.500 7 15 14
1928211N22138 1928 39 WP MM NOT_NAMED 1928-07-29 00:00:00 NR 22.1922 137.633 main 1196 1140 __________P___ -1 22.1922 137.633 7 15 15
1928211N22138 1928 39 WP MM NOT_NAMED 1928-07-29 03:00:00 NR 22.9210 137.853 main 1145 1092 __________P___ -1 22.9210 137.853 7 15 17
1928211N22138 1928 39 WP MM NOT_NAMED 1928-07-29 06:00:00 NR 23.6251 138.120 main 1092 1046 __________P___ -1 23.6251 138.120 7 15 22
1928211N22138 1928 39 WP MM NOT_NAMED 1928-07-29 09:00:00 NR 24.2898 138.464 main 1049 1029 __________P___ -1 24.2898 138.464 7 15 27
1928211N22138 1928 39 WP MM NOT_NAMED 1928-07-29 10:00:00 NR 24.5000 138.600 main 1029 995 __________O___ -1 24.5000 138.600 7 15 33
1928211N22138 1928 39 WP MM NOT_NAMED 1928-07-29 12:00:00 NR 24.9007 138.907 main 995 947 __________P___ -1 24.9007 138.907 7 15 38
1928211N22138 1928 39 WP MM NOT_NAMED 1928-07-29 15:00:00 NR 25.4515 139.426 main 947 925 __________P___ -1 25.4515 139.426 7 14 42
1928211N22138 1928 39 WP MM NOT_NAMED 1928-07-29 18:00:00 NR 25.9414 139.962 main 929 902 __________P___ -1 25.9414 139.962 7 13 45
1928211N22138 1928 39 WP MM NOT_NAMED 1928-07-29 21:00:00 NR 26.3704 140.455 main 902 897 __________P___ -1 26.3704 140.455 7 12 46
1928211N22138 1928 39 WP MM NOT_NAMED 1928-07-29 22:00:00 NR 26.5000 140.600 main 897 888 __________O___ -1 26.5000 140.600 3 10 42
1928211N22138 1928 39 WP MM NOT_NAMED 1928-07-30 00:00:00 NR 26.7397 140.833 main 888 870 __________P___ -1 26.7397 140.833 3 9 40
1928211N22138 1928 39 WP MM NOT_NAMED 1928-07-30 03:00:00 NR 27.0493 141.119 main 875 848 __________P___ -1 27.0493 141.119 3 7 38
1928211N22138 1928 39 WP MM NOT_NAMED 1928-07-30 06:00:00 NR 27.3268 141.347 main 848 821 __________P___ -1 27.3268 141.347 3 7 34
1928211N22138 1928 39 WP MM NOT_NAMED 1928-07-30 09:00:00 NR 27.6029 141.540 main 821 814 __________P___ -1 27.6029 141.540 3 7 31
1928211N22138 1928 39 WP MM NOT_NAMED 1928-07-30 10:00:00 NR 27.7000 141.600 main 814 796 __________O___ -1 27.7000 141.600 4 7 28
1928211N22138 1928 39 WP MM NOT_NAMED 1928-07-30 12:00:00 NR 27.9065 141.719 main 796 770 __________P___ -1 27.9065 141.719 4 7 25
1928211N22138 1928 39 WP MM NOT_NAMED 1928-07-30 15:00:00 NR 28.2429 141.895 main 770 730 __________P___ -1 28.2429 141.895 4 8 24
1928211N22138 1928 39 WP MM NOT_NAMED 1928-07-30 18:00:00 NR 28.6023 142.069 main 732 692 __________P___ -1 28.6023 142.069 4 8 23
1928211N22138 1928 39 WP MM NOT_NAMED 1928-07-30 21:00:00 NR 28.9747 142.242 main 692 685 __________P___ -1 28.9747 142.242 4 8 22
1928211N22138 1928 39 WP MM NOT_NAMED 1928-07-30 22:00:00 NR 29.1000 142.300 main 685 __________O___ -1 29.1000 142.300 4 8 24

Digital Typhoon Data and Search

About IBTrACS Database

This database is a web-friendly format of International Best Track Archive for Climate Stewardship (IBTrACS), a global best track data archive curated by NOAA dating back to 1842.

Updated: 2021-10-25